createdAt,value
2023-04-26T00:02:22.058Z,11.56
2023-04-26T00:04:56.608Z,11.43
2023-04-26T00:07:25.091Z,11.46
2023-04-26T00:09:52.884Z,11.43
2023-04-26T00:12:20.554Z,11.38
2023-04-26T00:14:48.002Z,11.51
2023-04-26T00:17:16.210Z,11.61
2023-04-26T00:19:43.805Z,11.83
2023-04-26T00:22:11.343Z,11.99
2023-04-26T00:24:38.689Z,12.30
2023-04-26T00:27:09.276Z,12.44
2023-04-26T00:29:37.595Z,12.25
2023-04-26T00:32:05.555Z,12.33
2023-04-26T00:34:37.426Z,12.41
2023-04-26T00:37:05.900Z,12.35
2023-04-26T00:39:33.250Z,12.16
2023-04-26T00:42:00.621Z,12.39
2023-04-26T00:44:27.794Z,12.58
2023-04-26T00:46:56.314Z,12.59
2023-04-26T00:49:25.585Z,12.77
2023-04-26T00:51:53.791Z,12.75
2023-04-26T00:54:22.011Z,12.76
2023-04-26T00:56:52.182Z,12.84
2023-04-26T00:59:22.780Z,12.76
2023-04-26T01:01:50.303Z,12.72
2023-04-26T01:04:18.315Z,12.39
2023-04-26T01:06:46.466Z,12.48
2023-04-26T01:09:16.142Z,12.42
2023-04-26T01:11:44.964Z,12.15
2023-04-26T01:14:12.362Z,12.02
2023-04-26T01:16:40.983Z,11.95
2023-04-26T01:19:12.575Z,11.92
2023-04-26T01:21:40.899Z,11.88
2023-04-26T01:24:12.626Z,11.74
2023-04-26T01:26:45.845Z,11.68
2023-04-26T01:29:21.181Z,11.69
2023-04-26T01:31:49.703Z,11.41
2023-04-26T01:34:17.250Z,11.50
2023-04-26T01:36:46.985Z,11.61
2023-04-26T01:39:14.288Z,11.93
2023-04-26T01:41:41.724Z,11.98
2023-04-26T01:44:09.175Z,11.85
2023-04-26T01:46:36.458Z,11.71
2023-04-26T01:49:03.713Z,11.70
2023-04-26T01:51:30.962Z,11.53
2023-04-26T01:53:58.014Z,11.48
2023-04-26T01:56:25.624Z,11.33
2023-04-26T01:58:56.419Z,11.26
2023-04-26T02:01:24.316Z,11.31
2023-04-26T02:03:52.355Z,11.56
2023-04-26T02:06:21.828Z,11.83
2023-04-26T02:08:49.798Z,11.81
2023-04-26T02:11:17.467Z,11.73
2023-04-26T02:13:45.063Z,11.69
2023-04-26T02:16:12.720Z,11.73
2023-04-26T02:18:41.701Z,11.64
2023-04-26T02:21:11.516Z,11.57
2023-04-26T02:23:38.776Z,11.49
2023-04-26T02:26:06.176Z,11.52
2023-04-26T02:28:33.420Z,11.40
2023-04-26T02:31:02.840Z,11.50
2023-04-26T02:33:30.958Z,11.49
2023-04-26T02:35:58.349Z,11.53
2023-04-26T02:38:31.297Z,11.35
2023-04-26T02:41:02.909Z,11.23
2023-04-26T02:43:31.243Z,11.19
2023-04-26T02:46:00.983Z,11.16
2023-04-26T02:48:28.553Z,11.20
2023-04-26T02:50:55.814Z,11.24
2023-04-26T02:53:22.928Z,11.58
2023-04-26T02:55:50.131Z,11.55
2023-04-26T02:58:17.691Z,11.62
2023-04-26T03:00:48.517Z,11.81
2023-04-26T03:03:16.875Z,11.93
2023-04-26T03:05:46.254Z,12.03
2023-04-26T03:08:13.736Z,12.24
2023-04-26T03:10:40.902Z,12.31
2023-04-26T03:13:08.649Z,12.36
2023-04-26T03:15:36.385Z,12.47
2023-04-26T03:18:03.744Z,12.42
2023-04-26T03:20:31.822Z,12.27
2023-04-26T03:22:59.388Z,12.39
2023-04-26T03:25:26.581Z,12.61
2023-04-26T03:27:53.995Z,12.59
2023-04-26T03:30:21.171Z,12.77
2023-04-26T03:32:49.000Z,12.72
2023-04-26T03:35:16.295Z,12.79
2023-04-26T03:37:43.733Z,12.63
2023-04-26T03:40:13.664Z,12.70
2023-04-26T03:42:41.142Z,12.54
2023-04-26T03:45:08.818Z,12.49
2023-04-26T03:47:36.268Z,12.57
2023-04-26T03:50:03.647Z,12.40
2023-04-26T03:52:31.619Z,12.54
2023-04-26T03:54:58.982Z,12.78
2023-04-26T03:57:27.064Z,12.68
2023-04-26T03:59:54.291Z,12.76
2023-04-26T04:02:21.739Z,12.98
2023-04-26T04:04:49.205Z,12.90
2023-04-26T04:07:17.036Z,13.14
2023-04-26T04:09:44.298Z,13.26
2023-04-26T04:12:11.715Z,13.39
2023-04-26T04:14:39.634Z,13.52
2023-04-26T04:17:11.198Z,13.52
2023-04-26T04:19:38.601Z,13.35
2023-04-26T04:22:07.205Z,13.50
2023-04-26T04:24:34.908Z,13.60
2023-04-26T04:27:02.069Z,13.65
2023-04-26T04:29:29.916Z,13.43
2023-04-26T04:31:57.203Z,13.22
2023-04-26T04:34:24.661Z,13.42
2023-04-26T04:36:52.104Z,13.48
2023-04-26T04:39:19.735Z,13.53
2023-04-26T04:41:49.649Z,13.64
2023-04-26T04:44:18.966Z,13.47
2023-04-26T04:46:46.409Z,13.44
2023-04-26T04:49:15.064Z,13.49
2023-04-26T04:51:42.996Z,13.59
2023-04-26T04:54:20.501Z,13.80
2023-04-26T04:56:48.526Z,13.88
2023-04-26T04:59:16.912Z,13.90
2023-04-26T05:01:44.160Z,14.08
2023-04-26T05:04:14.675Z,13.98
2023-04-26T05:06:42.212Z,14.17
2023-04-26T05:09:11.530Z,14.01
2023-04-26T05:11:39.348Z,13.98
2023-04-26T05:14:08.275Z,14.00
2023-04-26T05:16:36.142Z,13.90
2023-04-26T05:19:04.194Z,13.92
2023-04-26T05:21:32.523Z,13.84
2023-04-26T05:24:00.298Z,14.01
2023-04-26T05:26:27.556Z,14.22
2023-04-26T05:29:13.298Z,14.25
2023-04-26T05:31:51.923Z,14.33
2023-04-26T05:34:38.768Z,14.41
2023-04-26T05:37:06.098Z,14.66
2023-04-26T05:39:33.409Z,14.53
2023-04-26T05:42:01.931Z,14.54
2023-04-26T05:44:30.160Z,14.72
2023-04-26T05:46:57.330Z,14.84
2023-04-26T05:49:26.504Z,14.96
2023-04-26T05:51:53.944Z,14.91
2023-04-26T05:54:22.180Z,14.88
2023-04-26T05:56:49.264Z,14.94
2023-04-26T05:59:17.057Z,15.17
2023-04-26T06:01:44.529Z,15.23
2023-04-26T06:04:12.153Z,15.33
2023-04-26T06:06:49.074Z,15.45
2023-04-26T06:09:17.868Z,15.48
2023-04-26T06:11:46.797Z,15.54
2023-04-26T06:14:23.518Z,15.60
2023-04-26T06:16:58.364Z,15.67
2023-04-26T06:19:25.833Z,15.69
2023-04-26T06:21:55.621Z,15.79
2023-04-26T06:24:25.911Z,15.96
2023-04-26T06:26:53.200Z,16.10
2023-04-26T06:29:21.825Z,16.10
2023-04-26T06:31:49.501Z,16.26
2023-04-26T06:34:18.569Z,16.22
2023-04-26T06:36:46.508Z,16.27
2023-04-26T06:39:13.871Z,16.33
2023-04-26T06:41:43.537Z,16.45
2023-04-26T06:44:12.528Z,16.44
2023-04-26T06:46:43.562Z,16.57
2023-04-26T06:49:11.754Z,16.62
2023-04-26T06:51:39.023Z,16.74
2023-04-26T06:54:07.665Z,16.87
2023-04-26T06:56:34.944Z,16.69
2023-04-26T06:59:07.128Z,16.93
2023-04-26T07:01:35.886Z,17.05
2023-04-26T07:04:05.129Z,17.07
2023-04-26T07:06:32.651Z,17.19
2023-04-26T07:09:01.447Z,17.12
2023-04-26T07:11:29.953Z,17.16
2023-04-26T07:13:57.600Z,17.32
2023-04-26T07:16:25.152Z,17.42
2023-04-26T07:18:53.054Z,17.44
2023-04-26T07:21:20.459Z,17.56
2023-04-26T07:23:47.791Z,17.59
2023-04-26T07:26:15.005Z,17.73
2023-04-26T07:28:42.399Z,17.76
2023-04-26T07:31:10.897Z,17.82
2023-04-26T07:33:38.543Z,17.82
2023-04-26T07:36:06.253Z,17.80
2023-04-26T07:38:33.865Z,17.99
2023-04-26T07:41:05.025Z,18.07
2023-04-26T07:43:32.424Z,17.98
2023-04-26T07:46:03.317Z,18.04
2023-04-26T07:48:30.758Z,18.10
2023-04-26T07:50:58.198Z,18.20
2023-04-26T07:53:25.402Z,18.09
2023-04-26T07:55:52.496Z,18.01
2023-04-26T07:58:19.980Z,17.92
2023-04-26T08:00:47.162Z,18.09
2023-04-26T08:03:20.444Z,18.17
2023-04-26T08:05:48.102Z,18.11
2023-04-26T08:08:17.159Z,18.01
2023-04-26T08:10:45.946Z,18.18
2023-04-26T08:13:13.238Z,18.19
2023-04-26T08:15:40.727Z,17.92
2023-04-26T08:18:07.922Z,18.25
2023-04-26T08:20:35.106Z,18.35
2023-04-26T08:23:02.502Z,18.42
2023-04-26T08:25:29.742Z,18.51
2023-04-26T08:27:57.203Z,18.42
2023-04-26T08:30:24.556Z,18.47
2023-04-26T08:32:51.875Z,18.56
2023-04-26T08:35:19.212Z,18.50
2023-04-26T08:37:46.241Z,18.39
2023-04-26T08:40:13.813Z,18.39
2023-04-26T08:42:44.037Z,18.51
2023-04-26T08:45:11.793Z,18.40
2023-04-26T08:47:47.646Z,18.58
2023-04-26T08:50:16.950Z,18.66
2023-04-26T08:52:44.810Z,18.75
2023-04-26T08:55:16.587Z,18.71
2023-04-26T08:57:47.206Z,18.96
2023-04-26T09:00:16.280Z,18.97
2023-04-26T09:02:51.547Z,19.08
2023-04-26T09:05:24.411Z,19.11
2023-04-26T09:08:00.892Z,19.26
2023-04-26T09:10:28.838Z,19.43
2023-04-26T09:12:56.715Z,19.48
2023-04-26T09:15:26.584Z,19.54
2023-04-26T09:17:54.011Z,19.51
2023-04-26T09:20:29.490Z,19.68
2023-04-26T09:23:08.152Z,19.73
2023-04-26T09:25:36.572Z,19.89
2023-04-26T09:28:18.683Z,20.00
2023-04-26T09:30:46.390Z,20.13
2023-04-26T09:33:13.716Z,20.19
2023-04-26T09:35:42.707Z,20.16
2023-04-26T09:38:16.347Z,20.28
2023-04-26T09:40:47.088Z,20.27
2023-04-26T09:43:16.374Z,20.38
2023-04-26T09:45:58.079Z,20.38
2023-04-26T09:48:26.846Z,20.35
2023-04-26T09:50:56.620Z,20.43
2023-04-26T09:53:47.637Z,20.53
2023-04-26T09:56:18.984Z,20.40
2023-04-26T09:59:01.355Z,20.38
2023-04-26T10:01:30.696Z,20.33
2023-04-26T10:04:01.050Z,20.29
2023-04-26T10:06:28.975Z,20.25
2023-04-26T10:08:56.997Z,20.40
2023-04-26T10:11:26.556Z,20.30
2023-04-26T10:13:54.066Z,20.14
2023-04-26T10:16:21.848Z,20.35
2023-04-26T10:18:49.680Z,20.49
2023-04-26T10:21:32.302Z,20.75
2023-04-26T10:24:00.501Z,20.71
2023-04-26T10:26:57.633Z,20.76
2023-04-26T10:29:27.968Z,20.56
2023-04-26T10:32:01.858Z,20.72
2023-04-26T10:34:33.686Z,20.76
2023-04-26T10:37:15.162Z,20.94
2023-04-26T10:39:43.910Z,20.86
2023-04-26T10:42:25.650Z,20.88
2023-04-26T10:45:14.685Z,20.81
2023-04-26T10:47:41.822Z,20.88
2023-04-26T10:50:10.253Z,20.93
2023-04-26T10:52:58.995Z,20.91
2023-04-26T10:55:55.590Z,21.12
2023-04-26T10:58:35.456Z,21.09
2023-04-26T11:01:16.617Z,21.27
2023-04-26T11:04:04.132Z,21.29
2023-04-26T11:06:57.960Z,21.25
2023-04-26T11:09:41.919Z,21.11
2023-04-26T11:12:14.094Z,21.15
2023-04-26T11:14:46.452Z,21.34
2023-04-26T11:17:14.334Z,21.39
2023-04-26T11:19:41.836Z,21.50
2023-04-26T11:22:09.329Z,21.50
2023-04-26T11:24:36.942Z,21.62
2023-04-26T11:27:13.630Z,21.79
2023-04-26T11:29:40.841Z,21.83
2023-04-26T11:32:08.680Z,22.05
2023-04-26T11:34:38.661Z,22.10
2023-04-26T11:37:07.000Z,22.07
2023-04-26T11:39:35.766Z,22.08
2023-04-26T11:42:10.137Z,21.99
2023-04-26T11:44:38.526Z,22.05
2023-04-26T11:47:07.050Z,22.03
2023-04-26T11:49:36.779Z,22.04
2023-04-26T11:52:06.379Z,21.91
2023-04-26T11:54:38.064Z,21.84
2023-04-26T11:57:17.310Z,21.88
2023-04-26T11:59:46.153Z,21.97
2023-04-26T12:02:13.870Z,22.06
2023-04-26T12:04:41.773Z,22.18
2023-04-26T12:07:09.730Z,22.22
2023-04-26T12:09:42.614Z,22.14
2023-04-26T12:12:11.401Z,22.04
2023-04-26T12:14:40.980Z,22.21
2023-04-26T12:17:08.856Z,22.18
2023-04-26T12:19:37.154Z,22.11
2023-04-26T12:22:05.274Z,22.22
2023-04-26T12:24:34.758Z,22.27
2023-04-26T12:27:04.424Z,22.30
2023-04-26T12:29:32.151Z,22.41
2023-04-26T12:32:00.625Z,22.27
2023-04-26T12:34:28.404Z,22.33
2023-04-26T12:36:56.353Z,22.37
2023-04-26T12:39:23.573Z,22.42
2023-04-26T12:41:50.687Z,22.51
2023-04-26T12:44:19.637Z,22.51
2023-04-26T12:46:48.978Z,22.47
2023-04-26T12:49:16.263Z,22.38
2023-04-26T12:51:43.326Z,22.40
2023-04-26T12:54:10.508Z,22.41
2023-04-26T12:56:44.150Z,22.13
2023-04-26T12:59:11.362Z,22.11
2023-04-26T13:01:38.691Z,22.01
2023-04-26T13:04:06.248Z,21.94
2023-04-26T13:06:34.273Z,22.02
2023-04-26T13:09:02.178Z,22.10
2023-04-26T13:11:29.448Z,22.20
2023-04-26T13:13:56.710Z,22.40
2023-04-26T13:16:24.121Z,22.38
2023-04-26T13:18:51.412Z,22.51
2023-04-26T13:21:18.896Z,22.43
2023-04-26T13:23:47.519Z,22.54
2023-04-26T13:26:17.601Z,22.38
2023-04-26T13:28:44.971Z,22.28
2023-04-26T13:31:12.380Z,22.28
2023-04-26T13:33:39.472Z,22.35
2023-04-26T13:36:07.655Z,22.36
2023-04-26T13:38:34.875Z,22.28
2023-04-26T13:41:03.007Z,22.26
2023-04-26T13:43:30.085Z,21.89
2023-04-26T13:45:57.497Z,21.88
2023-04-26T13:48:24.647Z,21.90
2023-04-26T13:50:52.055Z,21.92
2023-04-26T13:53:22.387Z,21.85
2023-04-26T13:55:49.520Z,21.88
2023-04-26T13:58:17.035Z,21.80
2023-04-26T14:00:44.500Z,21.85
2023-04-26T14:03:11.915Z,21.77
2023-04-26T14:05:39.245Z,21.79
2023-04-26T14:08:06.814Z,21.72
2023-04-26T14:10:34.469Z,21.70
2023-04-26T14:13:01.743Z,21.65
2023-04-26T14:15:29.158Z,21.73
2023-04-26T14:17:56.429Z,21.81
2023-04-26T14:20:23.602Z,21.80
2023-04-26T14:22:50.904Z,21.98
2023-04-26T14:25:18.261Z,21.92
2023-04-26T14:27:45.471Z,22.04
2023-04-26T14:30:14.674Z,21.97
2023-04-26T14:32:41.986Z,21.89
2023-04-26T14:35:09.305Z,21.82
2023-04-26T14:37:37.116Z,21.82
2023-04-26T14:40:06.532Z,21.89
2023-04-26T14:42:34.125Z,21.80
2023-04-26T14:45:01.342Z,21.81
2023-04-26T14:47:34.149Z,21.75
2023-04-26T14:50:01.631Z,21.67
2023-04-26T14:52:35.614Z,21.63
2023-04-26T14:55:06.686Z,21.74
2023-04-26T14:57:34.709Z,21.67
2023-04-26T15:00:07.335Z,21.58
2023-04-26T15:02:35.293Z,21.49
2023-04-26T15:05:04.348Z,21.51
2023-04-26T15:07:33.100Z,21.42
2023-04-26T15:10:01.732Z,21.33
2023-04-26T15:12:31.789Z,21.38
2023-04-26T15:14:59.667Z,21.36
2023-04-26T15:17:27.532Z,21.30
2023-04-26T15:19:54.872Z,21.23
2023-04-26T15:22:21.912Z,21.17
2023-04-26T15:24:51.143Z,21.19
2023-04-26T15:27:18.670Z,21.07
2023-04-26T15:29:46.312Z,21.16
2023-04-26T15:32:15.223Z,21.19
2023-04-26T15:34:43.696Z,21.11
2023-04-26T15:37:12.030Z,21.25
2023-04-26T15:39:39.347Z,21.11
2023-04-26T15:42:07.412Z,20.93
2023-04-26T15:44:34.825Z,21.07
2023-04-26T15:47:02.337Z,21.02
2023-04-26T15:49:29.849Z,20.98
2023-04-26T15:51:57.262Z,20.99
2023-04-26T15:54:25.166Z,20.92
2023-04-26T15:56:53.146Z,20.90
2023-04-26T15:59:20.445Z,20.80
2023-04-26T16:01:48.060Z,20.91
2023-04-26T16:04:15.299Z,20.74
2023-04-26T16:06:43.225Z,20.78
2023-04-26T16:09:24.823Z,20.73
2023-04-26T16:11:53.305Z,20.67
2023-04-26T16:14:21.162Z,20.53
2023-04-26T16:16:48.523Z,20.57
2023-04-26T16:19:17.581Z,20.57
2023-04-26T16:21:44.880Z,20.46
2023-04-26T16:24:12.442Z,20.44
2023-04-26T16:26:39.714Z,20.48
2023-04-26T16:29:06.822Z,20.33
2023-04-26T16:31:36.212Z,20.36
2023-04-26T16:34:03.484Z,20.27
2023-04-26T16:36:31.697Z,20.22
2023-04-26T16:38:59.082Z,20.26
2023-04-26T16:41:28.137Z,20.25
2023-04-26T16:43:56.129Z,20.24
2023-04-26T16:46:23.709Z,20.20
2023-04-26T16:48:51.132Z,20.20
2023-04-26T16:51:18.411Z,20.19
2023-04-26T16:53:45.637Z,20.06
2023-04-26T16:56:13.114Z,20.03
2023-04-26T16:58:43.426Z,19.84
2023-04-26T17:01:11.176Z,19.67
2023-04-26T17:03:38.811Z,19.64
2023-04-26T17:06:07.838Z,19.51
2023-04-26T17:08:35.239Z,19.29
2023-04-26T17:11:02.519Z,19.20
2023-04-26T17:13:32.684Z,19.10
2023-04-26T17:15:59.895Z,18.90
2023-04-26T17:18:27.290Z,18.90
2023-04-26T17:20:56.494Z,18.91
2023-04-26T17:23:24.647Z,18.88
2023-04-26T17:25:53.348Z,18.82
2023-04-26T17:28:22.657Z,18.90
2023-04-26T17:30:49.819Z,18.95
2023-04-26T17:33:17.110Z,18.96
2023-04-26T17:35:44.844Z,19.03
2023-04-26T17:38:11.957Z,19.07
2023-04-26T17:40:39.526Z,19.02
2023-04-26T17:43:06.998Z,19.13
2023-04-26T17:45:34.120Z,19.29
2023-04-26T17:48:01.541Z,19.24
2023-04-26T17:50:30.534Z,19.33
2023-04-26T17:52:58.757Z,19.31
2023-04-26T17:55:26.182Z,19.38
2023-04-26T17:57:53.336Z,19.28
2023-04-26T18:00:20.655Z,19.27
2023-04-26T18:02:48.734Z,19.35
2023-04-26T18:05:18.698Z,19.32
2023-04-26T18:07:45.894Z,19.17
2023-04-26T18:10:13.159Z,19.18
2023-04-26T18:12:40.568Z,19.44
2023-04-26T18:15:08.245Z,19.43
2023-04-26T18:17:36.329Z,19.39
2023-04-26T18:20:03.821Z,19.38
2023-04-26T18:22:31.725Z,19.27
2023-04-26T18:24:58.992Z,19.31
2023-04-26T18:27:26.133Z,19.28
2023-04-26T18:29:53.216Z,19.32
2023-04-26T18:32:20.551Z,19.30
2023-04-26T18:34:48.099Z,19.43
2023-04-26T18:37:15.470Z,19.24
2023-04-26T18:39:42.615Z,19.33
2023-04-26T18:42:09.745Z,19.31
2023-04-26T18:44:36.928Z,19.29
2023-04-26T18:47:04.073Z,19.30
2023-04-26T18:49:31.462Z,19.28
2023-04-26T18:51:58.778Z,19.27
2023-04-26T18:54:26.419Z,19.25
2023-04-26T18:56:54.410Z,19.13
2023-04-26T18:59:22.852Z,19.07
2023-04-26T19:01:50.059Z,19.06
2023-04-26T19:04:17.293Z,18.81
2023-04-26T19:06:44.641Z,18.96
2023-04-26T19:09:12.028Z,18.82
2023-04-26T19:11:39.424Z,18.74
2023-04-26T19:14:06.693Z,18.50
2023-04-26T19:16:35.458Z,18.49
2023-04-26T19:19:03.386Z,18.40
2023-04-26T19:21:31.639Z,18.31
2023-04-26T19:23:58.862Z,18.19
2023-04-26T19:26:26.198Z,18.29
2023-04-26T19:28:55.720Z,18.27
2023-04-26T19:31:23.205Z,18.30
2023-04-26T19:33:50.330Z,18.22
2023-04-26T19:36:17.625Z,18.27
2023-04-26T19:38:45.888Z,18.08
2023-04-26T19:41:13.408Z,18.15
2023-04-26T19:43:41.305Z,18.12
2023-04-26T19:46:15.571Z,18.06
2023-04-26T19:48:43.016Z,17.97
2023-04-26T19:51:16.673Z,17.91
2023-04-26T19:53:44.620Z,17.80
2023-04-26T19:56:12.824Z,17.83
2023-04-26T19:58:40.053Z,17.79
2023-04-26T20:01:08.007Z,17.67
2023-04-26T20:03:35.581Z,17.67
2023-04-26T20:06:02.757Z,17.53
2023-04-26T20:08:31.402Z,17.67
2023-04-26T20:11:03.797Z,17.70
2023-04-26T20:13:32.247Z,17.48
2023-04-26T20:15:59.961Z,17.52
2023-04-26T20:18:27.462Z,17.58
2023-04-26T20:20:54.571Z,17.53
2023-04-26T20:23:21.720Z,17.54
2023-04-26T20:25:50.820Z,17.54
2023-04-26T20:28:17.950Z,17.50
2023-04-26T20:30:45.180Z,17.50
2023-04-26T20:33:14.795Z,17.53
2023-04-26T20:35:42.016Z,17.41
2023-04-26T20:38:09.395Z,17.36
2023-04-26T20:40:37.817Z,17.44
2023-04-26T20:43:05.061Z,17.63
2023-04-26T20:45:32.182Z,17.61
2023-04-26T20:47:59.578Z,17.50
2023-04-26T20:50:26.675Z,17.48
2023-04-26T20:52:53.908Z,17.71
2023-04-26T20:55:21.300Z,17.62
2023-04-26T20:57:48.477Z,17.75
2023-04-26T21:00:16.237Z,17.69
2023-04-26T21:02:44.340Z,17.67
2023-04-26T21:05:11.514Z,17.79
2023-04-26T21:07:38.949Z,17.76
2023-04-26T21:10:06.642Z,17.66
2023-04-26T21:12:34.700Z,17.64
2023-04-26T21:15:02.076Z,17.56
2023-04-26T21:17:32.601Z,17.41
2023-04-26T21:19:59.792Z,17.34
2023-04-26T21:22:27.111Z,17.44
2023-04-26T21:24:54.350Z,17.32
2023-04-26T21:27:21.504Z,17.39
2023-04-26T21:29:48.765Z,17.26
2023-04-26T21:32:16.722Z,17.40
2023-04-26T21:34:44.924Z,17.27
2023-04-26T21:37:12.399Z,17.22
2023-04-26T21:39:40.015Z,17.16
2023-04-26T21:42:07.766Z,17.20
2023-04-26T21:44:35.415Z,17.17
2023-04-26T21:47:02.666Z,17.13
2023-04-26T21:49:30.031Z,16.97
2023-04-26T21:51:57.102Z,17.02
2023-04-26T21:54:24.277Z,16.86
2023-04-26T21:56:52.085Z,16.89
2023-04-26T21:59:19.843Z,16.72
2023-04-26T22:01:47.094Z,16.85
2023-04-26T22:04:14.423Z,16.88
2023-04-26T22:06:42.464Z,16.71
2023-04-26T22:09:10.293Z,16.67
2023-04-26T22:11:37.655Z,16.72
2023-04-26T22:14:04.806Z,16.61
2023-04-26T22:16:32.149Z,16.60
2023-04-26T22:19:00.167Z,16.54
2023-04-26T22:21:28.569Z,16.41
2023-04-26T22:23:56.464Z,16.54
2023-04-26T22:26:24.003Z,16.61
2023-04-26T22:28:51.500Z,16.56
2023-04-26T22:31:18.680Z,16.60
2023-04-26T22:33:46.014Z,16.68
2023-04-26T22:36:13.849Z,16.79
2023-04-26T22:38:41.048Z,16.81
2023-04-26T22:41:08.304Z,16.59
2023-04-26T22:43:36.762Z,16.65
2023-04-26T22:46:03.958Z,16.65
2023-04-26T22:48:31.337Z,16.62
2023-04-26T22:51:00.182Z,16.76
2023-04-26T22:53:27.664Z,16.88
2023-04-26T22:55:54.831Z,16.81
2023-04-26T22:58:22.135Z,16.78
2023-04-26T23:00:49.603Z,16.78
2023-04-26T23:03:17.174Z,16.67
2023-04-26T23:05:47.291Z,16.81
2023-04-26T23:08:14.422Z,16.74
2023-04-26T23:10:41.608Z,16.67
2023-04-26T23:13:09.183Z,16.66
2023-04-26T23:15:36.478Z,16.51
2023-04-26T23:18:04.260Z,16.58
2023-04-26T23:20:31.744Z,16.47
2023-04-26T23:22:58.922Z,16.25
2023-04-26T23:25:26.854Z,16.23
2023-04-26T23:27:54.024Z,16.33
2023-04-26T23:30:21.319Z,16.44
2023-04-26T23:32:48.873Z,16.52
2023-04-26T23:35:16.582Z,16.53
2023-04-26T23:37:43.876Z,16.51
2023-04-26T23:40:12.426Z,16.49
2023-04-26T23:42:39.640Z,16.34
2023-04-26T23:45:08.041Z,16.34
2023-04-26T23:47:35.427Z,16.33
2023-04-26T23:50:03.010Z,16.37
2023-04-26T23:52:31.291Z,16.41
2023-04-26T23:54:58.584Z,16.54
2023-04-26T23:57:26.002Z,16.63
2023-04-26T23:59:53.331Z,16.72
